Time;durP1;ratioP1;P1;durP2;ratioP2;P2;SDS_P1;SDS_P2;PMS_P1;PMS_P2;Temp;Humidity;BMP_temperature;BMP_pressure;BME280_temperature;BME280_humidity;BME280_pressure;Samples;Min_cycle;Max_cycle;Signal;HPM_P1;HPM_P2
2023/10/14 00:04:40;;;;;;;12.30;8.90;;;;;;;;;;2612774;54;20431;-74
2023/10/14 00:07:11;;;;;;;17.40;11.17;;;;;;;;;;2610742;54;20463;-74
2023/10/14 00:09:43;;;;;;;20.13;12.10;;;;;;;;;;2611344;54;20420;-74
2023/10/14 00:12:14;;;;;;;15.67;11.10;;;;;;;;;;2610216;54;20560;-73
2023/10/14 00:14:44;;;;;;;13.20;9.53;;;;;;;;;;2611387;47;20522;-75
2023/10/14 00:17:34;;;;;;;16.10;9.10;;;;;;;;;;2611357;54;20966;-73
2023/10/14 00:20:03;;;;;;;14.60;11.57;;;;;;;;;;2612473;47;20451;-75
2023/10/14 00:22:30;;;;;;;14.10;11.00;;;;;;;;;;2611627;39;20885;-75
2023/10/14 00:24:58;;;;;;;18.03;10.87;;;;;;;;;;2611995;54;20390;-75
2023/10/14 00:27:24;;;;;;;20.03;12.73;;;;;;;;;;2613747;46;20558;-77
2023/10/14 00:30:06;;;;;;;14.43;11.00;;;;;;;;;;2613875;54;20400;-76
2023/10/14 00:32:32;;;;;;;14.30;10.50;;;;;;;;;;2613395;54;21471;-77
2023/10/14 00:34:59;;;;;;;16.23;10.57;;;;;;;;;;2612529;39;20470;-77
2023/10/14 00:37:25;;;;;;;14.03;8.40;;;;;;;;;;2612783;54;20447;-75
2023/10/14 00:40:01;;;;;;;10.90;8.43;;;;;;;;;;2609583;54;20423;-75
2023/10/14 00:42:27;;;;;;;12.20;9.13;;;;;;;;;;2611861;54;20938;-77
2023/10/14 00:44:53;;;;;;;15.20;11.20;;;;;;;;;;2612403;39;20823;-77
2023/10/14 00:47:24;;;;;;;16.93;7.87;;;;;;;;;;2610590;39;20778;-76
2023/10/14 00:49:52;;;;;;;15.40;11.70;;;;;;;;;;2609938;54;20399;-77
2023/10/14 00:52:19;;;;;;;17.23;10.90;;;;;;;;;;2608552;47;21045;-77
2023/10/14 00:59:48;;;;;;;10.00;7.60;;;;;;;;;;2608125;54;20937;-76
2023/10/14 01:02:14;;;;;;;12.20;8.90;;;;;;;;;;2609629;54;20422;-78
2023/10/14 01:04:47;;;;;;;11.43;8.13;;;;;;;;;;2608783;47;20498;-76
2023/10/14 01:07:13;;;;;;;8.13;5.67;;;;;;;;;;2609391;50;21494;-74
2023/10/14 01:12:16;;;;;;;15.60;8.10;;;;;;;;;;2608672;54;20407;-76
2023/10/14 01:14:58;;;;;;;12.70;7.67;;;;;;;;;;2610659;46;20442;-76
2023/10/14 01:17:29;;;;;;;16.07;9.80;;;;;;;;;;2609933;54;20427;-75
2023/10/14 01:20:00;;;;;;;18.67;9.90;;;;;;;;;;2610060;39;20841;-75
2023/10/14 01:22:30;;;;;;;10.00;5.20;;;;;;;;;;2610161;54;20399;-74
2023/10/14 01:24:56;;;;;;;5.73;3.20;;;;;;;;;;2610144;54;20410;-74
2023/10/14 01:27:25;;;;;;;4.70;2.33;;;;;;;;;;2609847;54;20400;-74
2023/10/14 01:29:51;;;;;;;3.10;1.87;;;;;;;;;;2609668;39;20804;-73
2023/10/14 01:32:24;;;;;;;2.60;1.30;;;;;;;;;;2608753;47;20420;-74
2023/10/14 01:34:58;;;;;;;6.43;1.43;;;;;;;;;;2610720;39;20919;-74
2023/10/14 01:37:27;;;;;;;3.03;1.30;;;;;;;;;;2609833;54;20400;-74
2023/10/14 01:40:14;;;;;;;2.30;1.50;;;;;;;;;;2609579;54;20400;-74
2023/10/14 01:42:41;;;;;;;4.27;1.50;;;;;;;;;;2611315;54;20427;-74
2023/10/14 01:45:08;;;;;;;2.53;1.60;;;;;;;;;;2611338;54;20443;-74
2023/10/14 01:47:42;;;;;;;3.50;1.30;;;;;;;;;;2609055;54;20423;-75
2023/10/14 01:50:12;;;;;;;2.97;1.70;;;;;;;;;;2610868;54;20376;-75
2023/10/14 01:52:39;;;;;;;3.57;1.77;;;;;;;;;;2611657;54;20535;-75
2023/10/14 01:55:05;;;;;;;4.67;2.70;;;;;;;;;;2609365;54;20963;-74
2023/10/14 01:57:31;;;;;;;3.90;2.50;;;;;;;;;;2609248;39;21255;-74
2023/10/14 01:59:57;;;;;;;3.33;2.50;;;;;;;;;;2609937;39;20858;-74
2023/10/14 02:02:24;;;;;;;5.30;2.40;;;;;;;;;;2608106;46;20848;-74
2023/10/14 02:04:56;;;;;;;3.33;1.80;;;;;;;;;;2611630;47;20450;-74
2023/10/14 02:07:22;;;;;;;3.77;1.30;;;;;;;;;;2608527;54;20966;-74
2023/10/14 02:09:48;;;;;;;1.70;0.87;;;;;;;;;;2611456;54;20415;-74
2023/10/14 02:12:18;;;;;;;5.90;1.60;;;;;;;;;;2609320;54;20392;-74
2023/10/14 02:14:54;;;;;;;2.83;1.37;;;;;;;;;;2608522;54;20550;-74
2023/10/14 02:17:22;;;;;;;2.47;1.30;;;;;;;;;;2609203;54;20403;-74
2023/10/14 02:19:51;;;;;;;2.60;1.17;;;;;;;;;;2609805;54;20396;-74
2023/10/14 02:22:22;;;;;;;6.50;1.50;;;;;;;;;;2608746;54;20539;-74
2023/10/14 02:24:49;;;;;;;2.70;1.10;;;;;;;;;;2608745;54;20408;-74
2023/10/14 02:27:15;;;;;;;3.03;1.27;;;;;;;;;;2609247;54;20435;-74
2023/10/14 02:29:45;;;;;;;6.50;2.00;;;;;;;;;;2609048;54;20415;-74
2023/10/14 02:32:12;;;;;;;2.40;1.20;;;;;;;;;;2608476;47;20953;-74
2023/10/14 02:34:45;;;;;;;2.17;0.90;;;;;;;;;;2609182;54;20522;-74
2023/10/14 02:37:15;;;;;;;1.80;0.60;;;;;;;;;;2610133;39;20883;-75
2023/10/14 02:39:43;;;;;;;1.90;0.63;;;;;;;;;;2608885;54;20977;-74
2023/10/14 02:42:09;;;;;;;2.53;0.97;;;;;;;;;;2608091;54;20387;-75
2023/10/14 02:44:52;;;;;;;3.60;1.10;;;;;;;;;;2606487;46;20435;-75
2023/10/14 02:47:21;;;;;;;6.53;1.00;;;;;;;;;;2609276;54;20511;-75
2023/10/14 02:49:55;;;;;;;3.17;1.27;;;;;;;;;;2608853;39;21101;-75
2023/10/14 02:52:28;;;;;;;2.73;1.30;;;;;;;;;;2609625;54;20461;-75
2023/10/14 02:54:55;;;;;;;3.70;1.10;;;;;;;;;;2608449;47;20408;-75
2023/10/14 02:57:26;;;;;;;3.20;1.43;;;;;;;;;;2611263;54;20451;-74
2023/10/14 02:59:55;;;;;;;4.63;1.80;;;;;;;;;;2609462;54;20371;-74
2023/10/14 03:07:27;;;;;;;5.20;1.73;;;;;;;;;;2609409;54;20443;-73
2023/10/14 03:09:54;;;;;;;3.17;1.63;;;;;;;;;;2608447;47;21417;-73
2023/10/14 03:12:21;;;;;;;7.30;2.13;;;;;;;;;;2608765;39;21320;-73
2023/10/14 03:14:52;;;;;;;5.20;2.50;;;;;;;;;;2608393;47;20431;-74
2023/10/14 03:17:39;;;;;;;5.20;2.83;;;;;;;;;;2609179;54;20418;-74
2023/10/14 03:20:34;;;;;;;3.17;2.27;;;;;;;;;;2611174;54;20384;-75
2023/10/14 03:22:53;;;;;;;11.57;2.47;;;;;;;;;;2611998;54;20422;-75
2023/10/14 03:25:23;;;;;;;3.60;2.20;;;;;;;;;;2612099;54;20958;-75
2023/10/14 03:27:58;;;;;;;6.50;2.70;;;;;;;;;;2612116;54;20420;-75
2023/10/14 03:30:25;;;;;;;6.80;2.27;;;;;;;;;;2612274;39;20806;-75
2023/10/14 03:32:51;;;;;;;6.93;2.17;;;;;;;;;;2611334;54;20879;-76
2023/10/14 03:35:20;;;;;;;8.40;3.00;;;;;;;;;;2611866;54;21080;-76
2023/10/14 03:37:54;;;;;;;15.37;3.53;;;;;;;;;;2612233;39;20841;-75
2023/10/14 03:43:08;;;;;;;6.53;2.77;;;;;;;;;;2612196;54;20395;-75
2023/10/14 03:45:45;;;;;;;8.70;2.50;;;;;;;;;;2612176;54;20585;-76
2023/10/14 03:48:13;;;;;;;8.80;2.80;;;;;;;;;;2611464;49;20433;-75
2023/10/14 03:50:39;;;;;;;9.50;3.33;;;;;;;;;;2612788;39;20530;-75
2023/10/14 03:53:08;;;;;;;12.93;2.70;;;;;;;;;;2611881;54;20427;-75
2023/10/14 03:55:34;;;;;;;8.60;3.03;;;;;;;;;;2611682;54;20419;-75
2023/10/14 03:58:03;;;;;;;15.63;3.40;;;;;;;;;;2611330;47;20462;-76
2023/10/14 04:00:39;;;;;;;6.63;2.40;;;;;;;;;;2612025;54;20498;-76
2023/10/14 04:03:11;;;;;;;11.40;3.47;;;;;;;;;;2610740;51;20448;-76
2023/10/14 04:05:38;;;;;;;13.80;4.17;;;;;;;;;;2611838;46;20447;-75
2023/10/14 04:08:05;;;;;;;9.03;2.73;;;;;;;;;;2611948;54;20407;-77
2023/10/14 04:10:37;;;;;;;9.70;2.67;;;;;;;;;;2611544;47;20407;-77
2023/10/14 04:13:04;;;;;;;9.40;3.30;;;;;;;;;;2612288;39;20845;-78
2023/10/14 04:17:58;;;;;;;13.90;4.23;;;;;;;;;;2612335;54;20412;-78
2023/10/14 04:20:30;;;;;;;15.70;3.67;;;;;;;;;;2611474;54;20974;-78
2023/10/14 04:22:57;;;;;;;9.73;3.40;;;;;;;;;;2611189;47;20446;-77
2023/10/14 04:25:42;;;;;;;13.20;3.10;;;;;;;;;;2612510;54;20392;-78
2023/10/14 04:30:44;;;;;;;11.60;2.87;;;;;;;;;;2612268;54;20455;-77
2023/10/14 04:35:58;;;;;;;8.80;3.03;;;;;;;;;;2612436;39;20761;-77
2023/10/14 04:38:37;;;;;;;11.97;2.57;;;;;;;;;;2612156;54;20416;-77
2023/10/14 04:41:04;;;;;;;7.20;2.60;;;;;;;;;;2612226;54;20404;-77
2023/10/14 04:46:05;;;;;;;9.00;2.90;;;;;;;;;;2612136;54;20415;-76
2023/10/14 04:51:08;;;;;;;9.87;2.43;;;;;;;;;;2611910;54;20434;-76
2023/10/14 04:53:35;;;;;;;9.93;3.83;;;;;;;;;;2611079;47;20472;-77
2023/10/14 04:56:04;;;;;;;10.60;3.53;;;;;;;;;;2610202;54;20441;-76
2023/10/14 04:58:32;;;;;;;6.53;2.90;;;;;;;;;;2612123;39;20794;-78
2023/10/14 05:01:00;;;;;;;11.80;4.40;;;;;;;;;;2611831;54;20427;-76
2023/10/14 05:03:29;;;;;;;11.47;3.30;;;;;;;;;;2611883;54;20423;-76
2023/10/14 05:06:40;;;;;;;10.40;3.20;;;;;;;;;;2612292;54;20419;-75
2023/10/14 05:08:44;;;;;;;13.80;3.73;;;;;;;;;;2612141;54;20427;-75
2023/10/14 05:11:13;;;;;;;8.10;4.80;;;;;;;;;;2612744;54;20407;-75
2023/10/14 05:13:42;;;;;;;8.60;2.77;;;;;;;;;;2612750;54;20404;-75
2023/10/14 05:16:21;;;;;;;11.43;4.00;;;;;;;;;;2612726;54;20438;-75
2023/10/14 05:19:00;;;;;;;12.37;3.30;;;;;;;;;;2612509;54;21604;-75
2023/10/14 05:21:36;;;;;;;11.90;3.00;;;;;;;;;;2610784;54;20422;-75
2023/10/14 05:24:09;;;;;;;14.53;2.90;;;;;;;;;;2610272;54;20430;-75
2023/10/14 05:26:47;;;;;;;4.10;2.00;;;;;;;;;;2610328;54;20448;-75
2023/10/14 05:29:17;;;;;;;8.37;3.50;;;;;;;;;;2608686;54;20435;-75
2023/10/14 05:31:46;;;;;;;8.37;2.97;;;;;;;;;;2609531;54;20454;-75
2023/10/14 05:34:13;;;;;;;8.80;3.67;;;;;;;;;;2609659;54;21396;-72
2023/10/14 05:36:39;;;;;;;15.73;3.23;;;;;;;;;;2608579;54;20412;-74
2023/10/14 05:39:06;;;;;;;10.23;3.17;;;;;;;;;;2610342;39;20812;-75
2023/10/14 05:41:36;;;;;;;16.43;4.77;;;;;;;;;;2608120;54;20418;-75
2023/10/14 05:44:04;;;;;;;18.40;4.10;;;;;;;;;;2609394;54;20395;-75
2023/10/14 05:46:30;;;;;;;9.10;3.63;;;;;;;;;;2609311;54;20445;-73
2023/10/14 05:48:56;;;;;;;13.93;4.27;;;;;;;;;;2608358;47;20424;-74
2023/10/14 05:51:23;;;;;;;8.13;4.33;;;;;;;;;;2607945;54;20409;-73
2023/10/14 05:53:50;;;;;;;20.87;5.47;;;;;;;;;;2609148;54;20422;-74
2023/10/14 05:56:16;;;;;;;6.23;4.43;;;;;;;;;;2609427;39;20801;-74
2023/10/14 05:58:42;;;;;;;12.73;4.73;;;;;;;;;;2609159;54;20577;-74
2023/10/14 06:01:10;;;;;;;18.63;5.27;;;;;;;;;;2610330;39;20855;-76
2023/10/14 06:03:37;;;;;;;19.50;5.30;;;;;;;;;;2611066;54;20527;-78
2023/10/14 06:06:09;;;;;;;14.63;3.70;;;;;;;;;;2610302;47;20542;-74
2023/10/14 06:08:35;;;;;;;17.47;5.03;;;;;;;;;;2609895;54;20391;-74
2023/10/14 06:11:03;;;;;;;10.77;5.90;;;;;;;;;;2608498;54;20443;-74
2023/10/14 06:13:29;;;;;;;12.70;5.77;;;;;;;;;;2608889;54;20969;-75
2023/10/14 06:16:00;;;;;;;9.57;3.80;;;;;;;;;;2611892;54;20455;-75
2023/10/14 06:18:26;;;;;;;11.17;3.13;;;;;;;;;;2608942;39;20863;-74
2023/10/14 06:20:53;;;;;;;5.77;3.40;;;;;;;;;;2608478;54;20435;-74
2023/10/14 06:23:19;;;;;;;11.47;3.10;;;;;;;;;;2609523;54;20456;-74
2023/10/14 06:25:46;;;;;;;10.50;4.47;;;;;;;;;;2610482;47;20468;-74
2023/10/14 06:28:12;;;;;;;13.50;2.73;;;;;;;;;;2609724;47;20411;-75
2023/10/14 06:30:38;;;;;;;12.23;3.00;;;;;;;;;;2610793;54;20420;-75
2023/10/14 06:33:04;;;;;;;18.90;5.00;;;;;;;;;;2610257;47;20442;-76
2023/10/14 06:35:32;;;;;;;11.37;3.13;;;;;;;;;;2611497;54;20414;-76
2023/10/14 06:37:59;;;;;;;5.13;2.50;;;;;;;;;;2609565;47;20974;-76
2023/10/14 06:40:35;;;;;;;9.77;3.40;;;;;;;;;;2612218;54;20432;-76
2023/10/14 06:43:06;;;;;;;8.87;3.17;;;;;;;;;;2609194;47;20438;-75
2023/10/14 06:45:32;;;;;;;13.43;4.00;;;;;;;;;;2608982;51;21524;-75
2023/10/14 06:47:59;;;;;;;8.60;3.03;;;;;;;;;;2610883;54;20415;-75
2023/10/14 06:50:25;;;;;;;13.43;3.77;;;;;;;;;;2611113;54;20403;-75
2023/10/14 06:53:00;;;;;;;13.73;5.03;;;;;;;;;;2611681;54;20387;-75
2023/10/14 06:55:37;;;;;;;6.70;2.30;;;;;;;;;;2610346;54;20427;-76
2023/10/14 06:58:05;;;;;;;9.90;4.23;;;;;;;;;;2610497;54;20451;-76
2023/10/14 07:00:32;;;;;;;8.67;3.10;;;;;;;;;;2608936;54;20415;-76
2023/10/14 07:03:01;;;;;;;8.40;3.30;;;;;;;;;;2607888;54;20470;-75
2023/10/14 07:05:28;;;;;;;11.70;3.73;;;;;;;;;;2611019;54;20424;-76
2023/10/14 07:07:57;;;;;;;7.87;3.03;;;;;;;;;;2608465;54;20412;-76
2023/10/14 07:10:28;;;;;;;8.50;2.73;;;;;;;;;;2607293;54;20416;-75
2023/10/14 07:12:57;;;;;;;6.50;3.53;;;;;;;;;;2611108;54;20414;-76
2023/10/14 07:15:24;;;;;;;6.57;3.80;;;;;;;;;;2609664;54;20444;-76
2023/10/14 07:17:50;;;;;;;10.17;3.17;;;;;;;;;;2610937;39;20897;-76
2023/10/14 07:20:16;;;;;;;10.97;4.20;;;;;;;;;;2612026;54;21260;-77
2023/10/14 07:22:42;;;;;;;13.77;3.07;;;;;;;;;;2611281;54;20412;-77
2023/10/14 07:25:11;;;;;;;8.90;2.80;;;;;;;;;;2610300;54;20454;-76
2023/10/14 07:27:40;;;;;;;10.20;3.30;;;;;;;;;;2611115;54;20395;-76
2023/10/14 07:30:13;;;;;;;8.93;3.07;;;;;;;;;;2611243;54;20416;-76
2023/10/14 07:32:43;;;;;;;9.80;3.67;;;;;;;;;;2611936;54;20444;-77
2023/10/14 07:35:16;;;;;;;7.93;4.33;;;;;;;;;;2611615;47;20416;-75
2023/10/14 07:37:43;;;;;;;12.63;3.43;;;;;;;;;;2611745;54;20426;-76
2023/10/14 07:40:30;;;;;;;5.50;3.53;;;;;;;;;;2612031;54;20414;-74
2023/10/14 07:43:10;;;;;;;7.47;3.90;;;;;;;;;;2611741;54;20422;-72
2023/10/14 07:45:37;;;;;;;9.00;3.50;;;;;;;;;;2612513;54;20395;-75
2023/10/14 07:48:08;;;;;;;8.80;3.83;;;;;;;;;;2613129;54;20514;-73
2023/10/14 07:50:36;;;;;;;13.17;4.13;;;;;;;;;;2613075;54;20913;-73
2023/10/14 07:53:12;;;;;;;8.00;3.43;;;;;;;;;;2613202;47;20406;-75
2023/10/14 07:55:42;;;;;;;9.23;3.40;;;;;;;;;;2613548;54;21000;-74
2023/10/14 07:58:09;;;;;;;15.43;4.73;;;;;;;;;;2613594;54;20519;-74
2023/10/14 08:00:39;;;;;;;8.30;3.00;;;;;;;;;;2612786;47;20561;-74
2023/10/14 08:03:07;;;;;;;6.23;3.07;;;;;;;;;;2612821;51;20484;-74
2023/10/14 08:05:40;;;;;;;6.67;3.60;;;;;;;;;;2612885;39;20824;-74
2023/10/14 08:08:09;;;;;;;7.80;4.73;;;;;;;;;;2608975;47;20450;-75
2023/10/14 08:10:42;;;;;;;6.80;3.50;;;;;;;;;;2613005;54;20427;-73
2023/10/14 08:13:21;;;;;;;9.40;3.87;;;;;;;;;;2612434;54;20469;-72
2023/10/14 08:15:50;;;;;;;14.67;5.07;;;;;;;;;;2611460;54;20427;-73
2023/10/14 08:18:23;;;;;;;14.00;4.33;;;;;;;;;;2612424;54;20977;-73
2023/10/14 08:20:53;;;;;;;13.70;4.30;;;;;;;;;;2612591;54;20403;-76
2023/10/14 08:23:20;;;;;;;12.17;4.40;;;;;;;;;;2612880;54;20966;-73
2023/10/14 08:25:53;;;;;;;11.90;4.43;;;;;;;;;;2611793;54;20461;-73
2023/10/14 08:28:21;;;;;;;10.63;4.77;;;;;;;;;;2612645;47;20428;-74
2023/10/14 08:30:55;;;;;;;10.67;4.20;;;;;;;;;;2613128;39;21055;-74
2023/10/14 08:33:25;;;;;;;6.23;3.73;;;;;;;;;;2610742;54;20530;-75
2023/10/14 08:35:52;;;;;;;8.80;4.33;;;;;;;;;;2612030;54;20426;-74
2023/10/14 08:38:23;;;;;;;12.03;5.20;;;;;;;;;;2614039;39;20725;-75
2023/10/14 08:40:52;;;;;;;7.87;3.73;;;;;;;;;;2612397;54;20486;-76
2023/10/14 08:43:21;;;;;;;15.20;5.07;;;;;;;;;;2611106;54;20423;-77
2023/10/14 08:45:51;;;;;;;8.57;4.43;;;;;;;;;;2613256;54;20403;-77
2023/10/14 08:48:18;;;;;;;8.17;5.20;;;;;;;;;;2610539;54;20844;-75
2023/10/14 08:50:45;;;;;;;21.87;4.27;;;;;;;;;;2611064;39;20866;-76
2023/10/14 08:53:13;;;;;;;5.20;3.70;;;;;;;;;;2611134;54;20412;-77
2023/10/14 08:55:41;;;;;;;8.40;4.33;;;;;;;;;;2610435;47;21128;-77
2023/10/14 08:58:13;;;;;;;11.57;5.33;;;;;;;;;;2610634;54;20451;-76
2023/10/14 09:00:41;;;;;;;11.80;4.83;;;;;;;;;;2611973;54;20427;-77
2023/10/14 09:03:09;;;;;;;8.80;4.17;;;;;;;;;;2612400;54;20400;-77
2023/10/14 09:05:39;;;;;;;8.30;4.07;;;;;;;;;;2612174;54;20423;-77
2023/10/14 09:08:06;;;;;;;9.50;4.97;;;;;;;;;;2612288;54;20479;-77
2023/10/14 09:10:36;;;;;;;6.00;3.87;;;;;;;;;;2613922;54;20529;-76
2023/10/14 09:13:06;;;;;;;11.00;4.30;;;;;;;;;;2612977;54;20432;-76
2023/10/14 09:15:44;;;;;;;13.27;6.13;;;;;;;;;;2613242;54;20399;-76
2023/10/14 09:18:14;;;;;;;6.57;4.57;;;;;;;;;;2613054;54;20458;-77
2023/10/14 09:20:42;;;;;;;8.63;6.00;;;;;;;;;;2614224;39;20844;-76
2023/10/14 09:23:14;;;;;;;6.43;4.53;;;;;;;;;;2613804;54;21052;-77
2023/10/14 09:25:49;;;;;;;7.60;5.60;;;;;;;;;;2614179;46;20438;-77
2023/10/14 09:28:16;;;;;;;9.33;4.20;;;;;;;;;;2613328;54;20427;-77
2023/10/14 09:30:45;;;;;;;9.03;5.07;;;;;;;;;;2612278;54;20439;-76
2023/10/14 09:33:17;;;;;;;8.43;5.50;;;;;;;;;;2613427;54;20994;-77
2023/10/14 09:35:48;;;;;;;6.17;5.50;;;;;;;;;;2614601;39;20876;-76
2023/10/14 09:38:18;;;;;;;18.23;6.07;;;;;;;;;;2614491;54;20568;-76
2023/10/14 09:40:53;;;;;;;6.47;5.50;;;;;;;;;;2614334;49;20403;-75
2023/10/14 09:43:25;;;;;;;12.50;6.00;;;;;;;;;;2612873;54;20419;-75
2023/10/14 09:45:55;;;;;;;8.53;6.20;;;;;;;;;;2614051;51;20969;-76
2023/10/14 09:48:23;;;;;;;8.50;5.43;;;;;;;;;;2614544;54;20424;-76
2023/10/14 09:50:50;;;;;;;7.20;4.80;;;;;;;;;;2612320;54;20456;-75
2023/10/14 09:53:17;;;;;;;7.40;4.10;;;;;;;;;;2611832;54;20462;-80
2023/10/14 09:55:43;;;;;;;8.60;4.73;;;;;;;;;;2612043;46;20426;-75
2023/10/14 09:58:13;;;;;;;9.33;5.87;;;;;;;;;;2612664;54;20451;-74
2023/10/14 10:00:41;;;;;;;11.43;5.20;;;;;;;;;;2610918;54;20474;-72
2023/10/14 10:03:09;;;;;;;9.87;4.93;;;;;;;;;;2610791;39;20795;-74
2023/10/14 10:05:45;;;;;;;9.33;5.13;;;;;;;;;;2612329;54;21411;-72
2023/10/14 10:08:19;;;;;;;10.40;5.80;;;;;;;;;;2612761;46;20414;-73
2023/10/14 10:10:47;;;;;;;9.70;5.63;;;;;;;;;;2613126;54;20403;-72
2023/10/14 10:13:14;;;;;;;4.80;4.40;;;;;;;;;;2612973;54;20428;-73
2023/10/14 10:15:40;;;;;;;9.93;4.97;;;;;;;;;;2613260;54;20547;-73
2023/10/14 10:18:16;;;;;;;8.93;5.40;;;;;;;;;;2613209;54;20419;-74
2023/10/14 10:20:51;;;;;;;7.90;5.60;;;;;;;;;;2613262;54;20415;-75
2023/10/14 10:23:17;;;;;;;8.70;5.13;;;;;;;;;;2611544;54;20423;-71
2023/10/14 10:25:47;;;;;;;10.03;5.40;;;;;;;;;;2613045;54;21040;-74
2023/10/14 10:28:26;;;;;;;7.77;5.07;;;;;;;;;;2612323;51;20537;-74
2023/10/14 10:30:52;;;;;;;10.20;5.60;;;;;;;;;;2612881;54;20395;-74
2023/10/14 10:33:18;;;;;;;11.40;5.77;;;;;;;;;;2612970;39;20989;-73
2023/10/14 10:35:59;;;;;;;13.10;5.33;;;;;;;;;;2612211;47;20411;-74
2023/10/14 10:38:29;;;;;;;12.50;5.57;;;;;;;;;;2612644;54;21122;-76
2023/10/14 10:41:30;;;;;;;9.57;5.30;;;;;;;;;;2613328;39;20805;-73
2023/10/14 10:44:00;;;;;;;10.37;4.40;;;;;;;;;;2611734;39;20859;-74
2023/10/14 10:46:31;;;;;;;14.57;5.83;;;;;;;;;;2610827;54;20507;-75
2023/10/14 10:48:57;;;;;;;12.37;4.90;;;;;;;;;;2609756;54;20491;-74
2023/10/14 10:51:23;;;;;;;9.30;6.40;;;;;;;;;;2610951;54;21233;-73
2023/10/14 10:53:51;;;;;;;14.67;6.03;;;;;;;;;;2610395;47;20471;-74
2023/10/14 10:56:19;;;;;;;8.67;5.30;;;;;;;;;;2611748;39;20983;-73
2023/10/14 10:58:45;;;;;;;7.90;5.00;;;;;;;;;;2611231;54;21025;-74
2023/10/14 11:01:14;;;;;;;17.17;5.87;;;;;;;;;;2609932;54;20437;-74
2023/10/14 11:04:14;;;;;;;7.67;5.70;;;;;;;;;;2610863;54;20407;-79
2023/10/14 11:06:41;;;;;;;11.60;5.50;;;;;;;;;;2612125;47;20431;-72
2023/10/14 11:09:12;;;;;;;13.30;5.47;;;;;;;;;;2611449;54;20428;-75
2023/10/14 11:11:39;;;;;;;10.10;5.40;;;;;;;;;;2610152;46;20431;-76
2023/10/14 11:14:22;;;;;;;16.90;5.77;;;;;;;;;;2610605;54;20391;-76
2023/10/14 11:16:54;;;;;;;13.60;5.67;;;;;;;;;;2611245;54;20512;-75
2023/10/14 11:19:27;;;;;;;11.77;6.10;;;;;;;;;;2611520;54;20423;-76
2023/10/14 11:21:54;;;;;;;13.10;6.00;;;;;;;;;;2612428;54;20426;-76
2023/10/14 11:24:20;;;;;;;14.97;6.43;;;;;;;;;;2611077;54;20385;-76
2023/10/14 11:26:47;;;;;;;16.17;6.63;;;;;;;;;;2612309;54;20408;-76
2023/10/14 11:29:14;;;;;;;13.10;5.80;;;;;;;;;;2612744;39;20780;-76
2023/10/14 11:31:43;;;;;;;10.07;6.20;;;;;;;;;;2612059;54;20435;-76
2023/10/14 11:34:11;;;;;;;11.10;6.60;;;;;;;;;;2610658;46;20411;-76
2023/10/14 11:36:44;;;;;;;12.93;8.97;;;;;;;;;;2612063;54;20422;-75
2023/10/14 11:39:13;;;;;;;8.10;6.33;;;;;;;;;;2612485;39;20932;-77
2023/10/14 11:41:42;;;;;;;13.33;6.73;;;;;;;;;;2611805;54;20399;-76
2023/10/14 11:44:08;;;;;;;11.03;5.77;;;;;;;;;;2612585;54;20511;-76
2023/10/14 11:46:38;;;;;;;16.27;6.27;;;;;;;;;;2612260;54;20395;-75
2023/10/14 11:49:09;;;;;;;9.87;5.97;;;;;;;;;;2611627;47;20973;-76
2023/10/14 11:51:37;;;;;;;6.70;5.53;;;;;;;;;;2610534;47;20416;-76
2023/10/14 11:54:03;;;;;;;11.27;6.27;;;;;;;;;;2612367;54;20929;-75
2023/10/14 11:56:30;;;;;;;11.00;7.03;;;;;;;;;;2609395;47;20422;-75
2023/10/14 11:58:56;;;;;;;9.17;6.40;;;;;;;;;;2610958;54;20455;-76
2023/10/14 12:01:23;;;;;;;8.30;5.63;;;;;;;;;;2609674;54;20519;-76
2023/10/14 12:03:50;;;;;;;12.27;5.80;;;;;;;;;;2608530;46;20423;-75
2023/10/14 12:06:17;;;;;;;9.50;5.97;;;;;;;;;;2611185;54;21339;-76
2023/10/14 12:08:45;;;;;;;9.60;6.87;;;;;;;;;;2609235;51;20427;-76
2023/10/14 12:11:13;;;;;;;9.93;6.70;;;;;;;;;;2608838;47;20403;-75
2023/10/14 12:13:40;;;;;;;7.90;6.20;;;;;;;;;;2610028;54;20986;-77
2023/10/14 12:16:06;;;;;;;6.40;6.00;;;;;;;;;;2608818;54;20435;-75
2023/10/14 12:18:37;;;;;;;9.80;6.80;;;;;;;;;;2609001;47;20443;-75
2023/10/14 12:21:04;;;;;;;10.37;7.30;;;;;;;;;;2607640;54;20434;-73
2023/10/14 12:23:33;;;;;;;9.43;6.27;;;;;;;;;;2605295;51;20423;-73
2023/10/14 12:26:00;;;;;;;14.80;7.03;;;;;;;;;;2608070;54;20412;-75
2023/10/14 12:28:30;;;;;;;5.67;5.27;;;;;;;;;;2609837;54;20410;-75
2023/10/14 12:30:58;;;;;;;6.60;5.37;;;;;;;;;;2612838;54;20396;-73
2023/10/14 12:33:35;;;;;;;10.63;5.80;;;;;;;;;;2611759;54;20474;-73
2023/10/14 12:36:11;;;;;;;10.03;6.20;;;;;;;;;;2612570;39;20823;-73
2023/10/14 12:38:44;;;;;;;8.33;6.53;;;;;;;;;;2611170;54;20427;-72
2023/10/14 12:41:13;;;;;;;7.23;6.53;;;;;;;;;;2611644;47;20427;-72
2023/10/14 12:43:39;;;;;;;7.03;6.40;;;;;;;;;;2612009;54;20402;-73
2023/10/14 12:48:44;;;;;;;7.17;6.23;;;;;;;;;;2613091;54;20965;-74
2023/10/14 12:51:12;;;;;;;7.77;7.07;;;;;;;;;;2612710;54;20391;-74
2023/10/14 12:53:45;;;;;;;7.67;6.70;;;;;;;;;;2612654;54;20404;-74
2023/10/14 12:56:13;;;;;;;8.70;7.00;;;;;;;;;;2610943;54;20946;-75
2023/10/14 12:58:42;;;;;;;11.23;6.80;;;;;;;;;;2610350;54;20571;-74
2023/10/14 13:01:13;;;;;;;8.73;6.50;;;;;;;;;;2607005;54;20411;-74
2023/10/14 13:03:41;;;;;;;7.20;6.50;;;;;;;;;;2608429;54;21433;-74
2023/10/14 13:06:08;;;;;;;7.10;6.60;;;;;;;;;;2608532;54;20411;-73
2023/10/14 13:08:36;;;;;;;8.30;6.90;;;;;;;;;;2609853;54;20415;-75
2023/10/14 13:11:02;;;;;;;7.90;6.57;;;;;;;;;;2612238;54;20419;-74
2023/10/14 13:13:28;;;;;;;9.73;7.40;;;;;;;;;;2612284;54;20543;-72
2023/10/14 13:15:54;;;;;;;7.80;7.20;;;;;;;;;;2611944;39;20849;-76
2023/10/14 13:18:23;;;;;;;7.23;6.80;;;;;;;;;;2612520;54;20395;-73
2023/10/14 13:20:50;;;;;;;7.20;6.60;;;;;;;;;;2615477;54;20431;-75
2023/10/14 13:23:16;;;;;;;6.50;6.20;;;;;;;;;;2615026;46;20463;-75
2023/10/14 13:25:45;;;;;;;7.80;7.20;;;;;;;;;;2615565;54;20654;-75
2023/10/14 13:28:13;;;;;;;6.60;6.30;;;;;;;;;;2615389;47;20968;-74
2023/10/14 13:30:47;;;;;;;8.03;7.30;;;;;;;;;;2612717;54;20461;-75
2023/10/14 13:33:16;;;;;;;8.40;7.80;;;;;;;;;;2612205;54;21024;-75
2023/10/14 13:35:42;;;;;;;8.27;7.60;;;;;;;;;;2612748;39;20600;-74
2023/10/14 13:38:10;;;;;;;8.40;7.80;;;;;;;;;;2612508;39;20786;-75
2023/10/14 13:40:38;;;;;;;7.47;6.97;;;;;;;;;;2612054;39;20787;-75
2023/10/14 13:43:05;;;;;;;7.43;6.93;;;;;;;;;;2608790;54;20503;-74
2023/10/14 13:45:32;;;;;;;7.20;6.70;;;;;;;;;;2610918;54;20427;-73
2023/10/14 13:48:08;;;;;;;7.57;6.80;;;;;;;;;;2608013;47;20435;-74
2023/10/14 13:50:37;;;;;;;7.07;6.57;;;;;;;;;;2610611;54;20500;-74
2023/10/14 13:53:19;;;;;;;7.43;6.93;;;;;;;;;;2611683;54;20459;-75
2023/10/14 13:55:46;;;;;;;7.17;6.57;;;;;;;;;;2611755;47;21363;-75
2023/10/14 13:58:12;;;;;;;9.07;8.17;;;;;;;;;;2611623;54;20451;-75
2023/10/14 14:00:40;;;;;;;8.30;7.50;;;;;;;;;;2612166;54;21063;-74
2023/10/14 14:03:07;;;;;;;9.93;6.80;;;;;;;;;;2610979;54;20404;-75
2023/10/14 14:05:35;;;;;;;7.60;7.10;;;;;;;;;;2611317;54;20566;-74
2023/10/14 14:08:01;;;;;;;13.87;6.90;;;;;;;;;;2611479;54;20428;-75
2023/10/14 14:10:27;;;;;;;7.80;7.30;;;;;;;;;;2611812;54;21033;-74
2023/10/14 14:12:54;;;;;;;8.20;7.37;;;;;;;;;;2612811;54;20392;-75
2023/10/14 14:15:21;;;;;;;8.13;7.43;;;;;;;;;;2612369;54;21044;-75
2023/10/14 14:17:48;;;;;;;8.83;8.07;;;;;;;;;;2612134;54;20451;-75
2023/10/14 14:20:16;;;;;;;8.10;7.50;;;;;;;;;;2611863;54;20441;-76
2023/10/14 14:22:46;;;;;;;7.80;7.20;;;;;;;;;;2611710;54;20403;-75
2023/10/14 14:25:12;;;;;;;8.17;7.47;;;;;;;;;;2611982;54;20419;-75
2023/10/14 14:27:44;;;;;;;10.17;6.60;;;;;;;;;;2612937;54;20953;-74
2023/10/14 14:30:12;;;;;;;6.70;6.07;;;;;;;;;;2612459;54;20471;-76
2023/10/14 14:32:39;;;;;;;6.67;6.07;;;;;;;;;;2612362;54;20479;-75
2023/10/14 14:35:08;;;;;;;11.03;7.17;;;;;;;;;;2612385;54;20435;-76
2023/10/14 14:37:43;;;;;;;6.37;4.73;;;;;;;;;;2612979;54;20432;-75
2023/10/14 14:40:13;;;;;;;4.97;4.50;;;;;;;;;;2609520;39;20788;-74
2023/10/14 14:42:46;;;;;;;7.43;5.03;;;;;;;;;;2609128;54;20430;-75
2023/10/14 14:45:16;;;;;;;7.47;4.90;;;;;;;;;;2609423;54;20511;-75
2023/10/14 14:47:42;;;;;;;11.30;5.00;;;;;;;;;;2608987;39;20831;-75
2023/10/14 14:50:13;;;;;;;11.47;6.23;;;;;;;;;;2607945;54;20423;-76
2023/10/14 14:52:48;;;;;;;8.23;5.40;;;;;;;;;;2610057;54;20475;-76
2023/10/14 14:55:15;;;;;;;5.50;4.63;;;;;;;;;;2610826;54;20434;-77
2023/10/14 14:57:51;;;;;;;12.43;4.20;;;;;;;;;;2611725;54;20455;-75
2023/10/14 15:00:27;;;;;;;5.23;3.50;;;;;;;;;;2610277;54;20388;-75
2023/10/14 15:02:55;;;;;;;6.13;3.43;;;;;;;;;;2611904;54;20411;-75
2023/10/14 15:05:22;;;;;;;7.50;3.47;;;;;;;;;;2608109;47;20412;-75
2023/10/14 15:07:48;;;;;;;6.37;3.87;;;;;;;;;;2611850;54;20458;-75
2023/10/14 15:10:15;;;;;;;5.03;3.87;;;;;;;;;;2611315;54;20427;-77
2023/10/14 15:12:41;;;;;;;4.00;3.60;;;;;;;;;;2611685;54;20395;-76
2023/10/14 15:15:09;;;;;;;8.00;4.60;;;;;;;;;;2611512;54;20432;-77
2023/10/14 15:17:38;;;;;;;5.20;4.70;;;;;;;;;;2612114;54;20422;-76
2023/10/14 15:20:04;;;;;;;5.07;4.27;;;;;;;;;;2611860;54;20503;-76
2023/10/14 15:22:31;;;;;;;4.67;4.30;;;;;;;;;;2611003;54;20502;-76
2023/10/14 15:24:57;;;;;;;5.67;4.57;;;;;;;;;;2612194;54;20407;-74
2023/10/14 15:27:23;;;;;;;4.47;4.07;;;;;;;;;;2612079;54;20438;-76